Time;durP1;ratioP1;P1;durP2;ratioP2;P2;SDS_P1;SDS_P2;PMS_P1;PMS_P2;Temp;Humidity;BMP_temperature;BMP_pressure;BME280_temperature;BME280_humidity;BME280_pressure;Samples;Min_cycle;Max_cycle;Signal;HPM_P1;HPM_P2
2023/07/22 00:04:20;;;;;;;5.93;4.32;;;;;;;18.27;72.64;100025.03;10331717;28;20046;-75
2023/07/22 00:09:21;;;;;;;4.10;3.72;;;;;;;18.24;73.04;100025.38;10330829;28;20137;-73
2023/07/22 00:14:22;;;;;;;4.68;4.10;;;;;;;18.26;71.90;100025.22;10328308;28;20108;-74
2023/07/22 00:19:24;;;;;;;4.60;3.53;;;;;;;18.23;73.22;100034.47;10325426;28;20053;-73
2023/07/22 00:24:25;;;;;;;4.78;4.13;;;;;;;18.19;73.17;100027.75;10328006;28;20701;-76
2023/07/22 00:29:27;;;;;;;5.05;4.55;;;;;;;18.16;72.37;100038.91;10330512;28;20077;-74
2023/07/22 00:34:28;;;;;;;3.72;3.40;;;;;;;18.11;74.05;100025.97;10330105;28;20054;-72
2023/07/22 00:39:30;;;;;;;4.13;3.72;;;;;;;18.12;73.35;100032.19;10329064;28;20054;-76
2023/07/22 00:44:31;;;;;;;4.00;3.60;;;;;;;18.05;74.05;100031.25;10327329;28;20046;-74
2023/07/22 00:49:34;;;;;;;3.83;3.38;;;;;;;18.01;73.28;100019.97;10327776;28;20609;-76
2023/07/22 00:54:36;;;;;;;4.82;4.28;;;;;;;18.01;73.88;100036.97;10320196;28;20160;-76
2023/07/22 00:59:39;;;;;;;4.15;3.70;;;;;;;17.98;73.43;100023.84;10321343;28;20117;-71
2023/07/22 01:04:40;;;;;;;4.67;4.07;;;;;;;18.00;73.10;100023.69;10327472;28;20068;-74
2023/07/22 01:09:43;;;;;;;5.60;4.15;;;;;;;17.99;73.26;100030.91;10330716;28;20150;-75
2023/07/22 01:14:44;;;;;;;4.35;3.83;;;;;;;17.96;74.13;100023.19;10328851;28;20474;-74
2023/07/22 01:19:47;;;;;;;4.13;3.72;;;;;;;17.96;73.45;100023.19;10328252;28;20046;-73
2023/07/22 01:24:48;;;;;;;4.78;4.10;;;;;;;17.93;74.34;100022.72;10336072;28;20048;-75
2023/07/22 01:29:52;;;;;;;5.03;4.57;;;;;;;17.92;74.53;100021.88;10336548;28;20058;-73
2023/07/22 01:34:54;;;;;;;4.47;4.03;;;;;;;17.93;75.30;100025.41;10337130;28;20141;-75
2023/07/22 01:39:57;;;;;;;5.10;4.60;;;;;;;17.91;75.75;100022.03;10348963;28;20489;-75
2023/07/22 01:44:58;;;;;;;5.50;5.00;;;;;;;17.89;75.19;100026.75;10334233;28;20050;-73
2023/07/22 01:50:00;;;;;;;5.13;4.72;;;;;;;17.83;75.38;100026.44;10336249;28;20674;-74
2023/07/22 01:55:05;;;;;;;5.38;4.97;;;;;;;17.82;75.95;100024.75;10330686;28;20045;-74
2023/07/22 02:00:08;;;;;;;5.53;4.72;;;;;;;17.80;76.03;100023.25;10332922;28;21183;-74
2023/07/22 02:05:10;;;;;;;5.68;5.10;;;;;;;17.73;76.08;100027.66;10336011;28;20058;-72
2023/07/22 02:10:12;;;;;;;6.13;5.03;;;;;;;17.72;76.57;100018.75;10337569;28;20719;-75
2023/07/22 02:15:13;;;;;;;5.43;4.93;;;;;;;17.71;76.94;100024.31;10333758;28;20070;-74
2023/07/22 02:20:15;;;;;;;7.00;5.13;;;;;;;17.69;75.81;100029.88;10332485;28;20053;-73
2023/07/22 02:25:16;;;;;;;5.28;4.78;;;;;;;17.66;76.72;100027.53;10333226;28;20456;-73
2023/07/22 02:30:17;;;;;;;5.13;4.63;;;;;;;17.57;76.01;100029.41;10329800;28;20069;-72
2023/07/22 02:35:19;;;;;;;5.05;4.65;;;;;;;17.51;75.23;100027.44;10326579;28;20057;-75
2023/07/22 02:40:20;;;;;;;6.22;5.03;;;;;;;17.46;75.33;100022.56;10322363;28;20058;-73
2023/07/22 02:45:22;;;;;;;7.97;7.18;;;;;;;17.40;75.73;100017.88;10337834;28;20057;-73
2023/07/22 02:50:23;;;;;;;8.40;7.50;;;;;;;17.39;75.87;100036.91;10365989;28;20049;-75
2023/07/22 02:55:25;;;;;;;9.07;8.15;;;;;;;17.35;77.06;100036.38;10363227;28;20045;-74
2023/07/22 03:00:27;;;;;;;9.40;8.60;;;;;;;17.37;77.04;100039.75;10332854;28;20129;-72
2023/07/22 03:05:29;;;;;;;8.15;7.45;;;;;;;17.29;77.43;100032.56;10333040;28;20056;-75
2023/07/22 03:10:31;;;;;;;8.07;6.97;;;;;;;17.28;77.17;100032.72;10333049;28;20166;-73
2023/07/22 03:15:32;;;;;;;7.07;6.47;;;;;;;17.27;77.25;100042.63;10329010;28;20050;-75
2023/07/22 03:20:34;;;;;;;7.55;6.85;;;;;;;17.21;77.85;100035.25;10343658;28;20125;-73
2023/07/22 03:25:35;;;;;;;7.78;7.07;;;;;;;17.21;78.19;100037.94;10335642;28;20046;-76
2023/07/22 03:30:37;;;;;;;9.20;8.02;;;;;;;17.19;78.78;100036.44;10329706;28;20041;-73
2023/07/22 03:35:38;;;;;;;8.82;7.18;;;;;;;17.18;78.68;100049.03;10329712;28;20124;-74
2023/07/22 03:40:42;;;;;;;8.35;7.65;;;;;;;17.19;78.90;100048.03;10324585;28;20053;-72
2023/07/22 03:45:44;;;;;;;9.32;8.00;;;;;;;17.17;78.59;100047.34;10328047;28;20060;-75
2023/07/22 03:50:45;;;;;;;8.32;7.43;;;;;;;17.13;78.77;100046.03;10329977;28;20056;-73
2023/07/22 03:55:47;;;;;;;7.30;6.60;;;;;;;17.08;78.49;100043.00;10330907;28;20045;-75
2023/07/22 04:00:49;;;;;;;6.93;6.28;;;;;;;17.08;78.97;100045.72;10330204;28;20070;-74
2023/07/22 04:05:56;;;;;;;6.45;5.55;;;;;;;17.11;79.28;100053.44;10328382;28;20045;-76
2023/07/22 04:10:58;;;;;;;7.28;6.57;;;;;;;17.05;78.68;100054.13;10333677;28;20065;-74
2023/07/22 04:16:00;;;;;;;7.50;6.72;;;;;;;16.95;78.57;100047.06;10331862;28;20177;-75
2023/07/22 04:21:01;;;;;;;6.75;6.15;;;;;;;16.89;78.29;100047.75;10329629;28;20068;-73
2023/07/22 04:26:07;;;;;;;6.20;5.65;;;;;;;16.91;78.65;100045.72;10325875;28;20092;-77
2023/07/22 04:31:09;;;;;;;7.57;5.93;;;;;;;16.89;78.96;100044.22;10333796;28;20050;-74
2023/07/22 04:36:11;;;;;;;5.93;5.30;;;;;;;16.88;79.40;100056.00;10329670;28;20089;-74
2023/07/22 04:41:12;;;;;;;7.82;6.80;;;;;;;16.85;78.34;100067.88;10329000;28;20069;-70
2023/07/22 04:46:14;;;;;;;6.90;6.20;;;;;;;16.87;78.76;100063.19;10329531;28;20046;-72
2023/07/22 04:51:15;;;;;;;7.22;6.53;;;;;;;16.87;78.83;100065.88;10331722;28;20576;-72
2023/07/22 04:56:16;;;;;;;8.27;6.63;;;;;;;16.87;78.74;100065.06;10337370;28;20070;-72
2023/07/22 05:01:18;;;;;;;6.55;5.93;;;;;;;16.97;78.86;100063.03;10335551;28;20045;-75
2023/07/22 05:06:19;;;;;;;7.95;6.60;;;;;;;17.02;78.85;100059.84;10338924;28;20048;-71
2023/07/22 05:11:23;;;;;;;7.30;6.25;;;;;;;17.07;78.44;100057.47;10336562;28;20681;-75
2023/07/22 05:16:24;;;;;;;7.90;6.97;;;;;;;17.15;78.84;100049.41;10334836;28;20053;-73
2023/07/22 05:21:26;;;;;;;7.68;6.63;;;;;;;17.22;78.97;100058.47;10334552;28;20285;-70
2023/07/22 05:26:27;;;;;;;7.18;6.47;;;;;;;17.24;79.28;100061.81;10333919;28;20111;-73
2023/07/22 05:31:29;;;;;;;7.05;6.38;;;;;;;17.24;78.53;100061.81;10338419;28;20540;-75
2023/07/22 05:36:31;;;;;;;7.90;7.20;;;;;;;17.25;77.92;100068.88;10334030;28;20048;-73
2023/07/22 05:41:33;;;;;;;8.68;7.88;;;;;;;17.23;78.34;100084.31;10330870;28;20050;-74
2023/07/22 05:46:34;;;;;;;8.10;7.40;;;;;;;17.27;78.96;100077.59;10338668;28;20781;-73
2023/07/22 05:51:36;;;;;;;6.88;6.28;;;;;;;17.38;78.85;100084.47;10336330;28;20143;-74
2023/07/22 05:56:37;;;;;;;8.15;7.25;;;;;;;17.45;78.63;100077.38;10334770;28;20065;-75
2023/07/22 06:01:39;;;;;;;7.13;6.47;;;;;;;17.55;78.63;100082.59;10333504;28;20050;-74
2023/07/22 06:06:40;;;;;;;6.57;5.97;;;;;;;17.68;78.43;100084.72;10334859;28;20073;-73
2023/07/22 06:11:42;;;;;;;7.22;6.63;;;;;;;17.77;77.73;100080.97;10333667;28;20158;-71
2023/07/22 06:16:43;;;;;;;6.68;6.00;;;;;;;17.73;77.55;100065.34;10335699;28;20050;-73
2023/07/22 06:21:46;;;;;;;6.10;5.57;;;;;;;17.91;76.41;100082.13;10331377;28;20050;-72
2023/07/22 06:26:47;;;;;;;7.03;5.63;;;;;;;18.08;76.49;100085.59;10335831;28;20060;-70
2023/07/22 06:31:49;;;;;;;9.98;6.05;;;;;;;18.18;73.84;100082.69;10330217;28;20045;-74
2023/07/22 06:36:50;;;;;;;7.57;5.55;;;;;;;18.29;72.50;100087.66;10332185;28;20061;-75
2023/07/22 06:41:51;;;;;;;6.70;6.10;;;;;;;18.43;73.68;100090.59;10327922;28;20065;-71
2023/07/22 06:46:53;;;;;;;6.70;6.00;;;;;;;18.58;73.86;100106.84;10335793;28;20072;-75
2023/07/22 06:51:54;;;;;;;10.90;6.00;;;;;;;18.66;71.56;100104.06;10332158;28;20131;-73
2023/07/22 06:56:56;;;;;;;8.18;6.90;;;;;;;18.71;71.35;100097.13;10333458;28;20123;-75
2023/07/22 07:01:57;;;;;;;7.28;6.07;;;;;;;18.86;70.85;100099.06;10330203;28;20045;-72
2023/07/22 07:06:59;;;;;;;6.70;6.05;;;;;;;18.97;70.02;100103.19;10332724;28;20551;-73
2023/07/22 07:12:01;;;;;;;8.27;6.30;;;;;;;19.16;69.88;100099.16;10334500;28;20075;-74
2023/07/22 07:17:02;;;;;;;10.73;6.35;;;;;;;19.28;67.13;100108.47;10332023;28;20050;-76
2023/07/22 07:22:04;;;;;;;9.30;6.57;;;;;;;19.45;67.36;100100.19;10327694;28;20057;-74
2023/07/22 07:27:06;;;;;;;6.72;5.85;;;;;;;19.54;66.75;100088.28;10332547;28;20058;-74
2023/07/22 07:32:08;;;;;;;6.97;6.05;;;;;;;19.67;64.75;100099.25;10326600;28;20194;-73
2023/07/22 07:37:10;;;;;;;5.28;4.80;;;;;;;19.86;64.94;100105.13;10330927;28;20135;-71
2023/07/22 07:42:11;;;;;;;6.13;4.65;;;;;;;19.98;62.20;100102.78;10327407;28;20053;-75
2023/07/22 07:47:13;;;;;;;4.57;4.18;;;;;;;19.98;59.05;100108.19;10333138;28;20104;-73
2023/07/22 07:52:14;;;;;;;5.30;4.22;;;;;;;20.10;60.80;100107.53;10328630;28;20081;-73
2023/07/22 07:57:15;;;;;;;6.10;3.97;;;;;;;20.13;58.77;100109.84;10331778;28;20129;-72
2023/07/22 08:02:17;;;;;;;5.47;4.88;;;;;;;20.20;60.18;100106.41;10344655;28;20046;-75
2023/07/22 08:07:18;;;;;;;6.68;4.93;;;;;;;20.27;60.74;100102.72;10353166;28;20088;-71
2023/07/22 08:12:19;;;;;;;4.28;3.95;;;;;;;20.16;60.06;100105.09;10335023;28;20038;-70
2023/07/22 08:17:21;;;;;;;5.93;4.68;;;;;;;20.03;59.17;100109.31;10326240;28;20144;-73
2023/07/22 08:22:22;;;;;;;7.20;4.68;;;;;;;19.98;60.53;100098.22;10327735;28;20437;-74
2023/07/22 08:27:24;;;;;;;5.47;4.53;;;;;;;20.04;61.00;100105.59;10327955;28;20113;-74
2023/07/22 08:32:25;;;;;;;4.43;4.03;;;;;;;20.32;60.99;100110.28;10328540;28;20056;-72
2023/07/22 08:37:27;;;;;;;3.83;2.97;;;;;;;20.59;61.02;100099.75;10328366;28;20097;-72
2023/07/22 08:42:31;;;;;;;4.22;3.63;;;;;;;20.81;59.60;100095.19;10328130;28;20127;-72
2023/07/22 08:47:34;;;;;;;4.50;3.13;;;;;;;20.85;58.47;100093.75;10330407;28;20057;-73
2023/07/22 08:52:37;;;;;;;3.97;2.60;;;;;;;21.25;58.89;100087.84;10330027;28;21708;-75
2023/07/22 08:57:39;;;;;;;3.22;2.97;;;;;;;21.52;55.27;100084.28;10329855;28;20080;-73
2023/07/22 09:02:41;;;;;;;3.65;3.05;;;;;;;21.59;53.50;100075.34;10326148;28;20150;-73
2023/07/22 09:07:43;;;;;;;3.53;3.15;;;;;;;21.72;50.54;100078.13;10327489;28;20416;-75
2023/07/22 09:12:45;;;;;;;3.63;3.13;;;;;;;21.80;50.99;100069.84;10329131;28;20316;-74
2023/07/22 09:17:47;;;;;;;4.35;2.70;;;;;;;22.05;50.41;100075.59;10327766;28;20675;-71
2023/07/22 09:22:50;;;;;;;4.80;3.08;;;;;;;22.21;49.48;100071.66;10330155;28;20878;-73
2023/07/22 09:28:12;;;;;;;5.65;2.53;;;;;;;22.36;49.28;100066.09;10325861;28;20505;-73
2023/07/22 09:33:21;;;;;;;3.83;2.65;;;;;;;22.28;47.23;100065.41;10327333;28;20058;-75
2023/07/22 09:38:24;;;;;;;5.78;3.28;;;;;;;22.19;48.34;100056.66;10330067;28;20790;-72
2023/07/22 09:43:26;;;;;;;9.00;3.22;;;;;;;22.06;46.39;100065.56;10333486;28;20049;-73
2023/07/22 09:48:27;;;;;;;7.55;3.30;;;;;;;22.10;48.13;100058.72;10335947;28;20548;-73
2023/07/22 09:53:29;;;;;;;3.42;2.85;;;;;;;22.32;48.70;100051.28;10334618;28;21732;-71
2023/07/22 09:58:30;;;;;;;3.58;2.97;;;;;;;22.42;47.91;100051.72;10330606;28;20451;-74
2023/07/22 10:03:33;;;;;;;4.03;2.92;;;;;;;22.76;45.46;100039.03;10336392;28;20081;-71
2023/07/22 10:08:37;;;;;;;4.30;2.72;;;;;;;22.90;45.36;100047.97;10337471;28;20508;-74
2023/07/22 10:13:39;;;;;;;2.80;2.60;;;;;;;22.91;42.57;100035.28;10333520;28;20060;-76
2023/07/22 10:18:43;;;;;;;3.38;2.45;;;;;;;22.92;44.33;100029.63;10333853;28;20049;-76
2023/07/22 10:23:45;;;;;;;;;;;;;;;22.75;43.45;100034.63;10338641;28;20054;-73
2023/07/22 10:28:47;;;;;;;3.50;3.08;;;;;;;22.60;45.17;100034.84;10347151;28;20048;-74
2023/07/22 10:33:49;;;;;;;6.50;2.95;;;;;;;22.47;45.34;100021.25;10337738;28;20065;-72
2023/07/22 10:38:58;;;;;;;5.47;2.90;;;;;;;22.37;45.77;100018.16;10333000;28;20053;-73
2023/07/22 10:44:06;;;;;;;3.78;2.30;;;;;;;22.51;46.29;100013.56;10332884;28;20057;-72
2023/07/22 10:49:15;;;;;;;2.95;2.53;;;;;;;22.80;45.43;100009.56;10334011;28;20144;-73
2023/07/22 10:54:35;;;;;;;3.30;3.00;;;;;;;23.08;45.02;100000.38;10343588;28;20060;-74
2023/07/22 10:59:39;;;;;;;2.90;2.42;;;;;;;22.99;43.51;100007.91;10328501;28;20207;-72
2023/07/22 11:04:40;;;;;;;;;;;;;;;23.12;44.65;99999.75;10333616;28;20048;-70
2023/07/22 11:09:56;;;;;;;3.65;3.10;;;;;;;23.30;42.82;99985.50;10336145;28;19936;-71
2023/07/22 11:15:05;;;;;;;2.28;2.08;;;;;;;23.37;44.17;99985.47;10330669;28;20164;-72
2023/07/22 11:20:07;;;;;;;3.28;2.40;;;;;;;23.52;43.83;99989.81;10321552;28;20058;-73
2023/07/22 11:25:09;;;;;;;3.38;2.90;;;;;;;23.60;40.75;99971.41;10329898;28;20069;-73
2023/07/22 11:30:11;;;;;;;3.67;2.47;;;;;;;23.45;40.11;99968.13;10331500;28;20128;-75
2023/07/22 11:35:16;;;;;;;2.75;2.50;;;;;;;23.28;40.99;99968.63;10329907;28;20089;-74
2023/07/22 11:40:18;;;;;;;4.03;2.42;;;;;;;23.24;40.11;99956.50;10327218;28;20570;-70
2023/07/22 11:45:19;;;;;;;2.83;2.00;;;;;;;23.15;41.06;99952.38;10327051;28;20471;-72
2023/07/22 11:50:32;;;;;;;5.18;2.63;;;;;;;23.14;40.21;99950.69;10331921;28;20053;-72
2023/07/22 11:55:36;;;;;;;3.03;2.53;;;;;;;23.12;41.39;99947.38;10333369;28;21170;-73
2023/07/22 12:00:43;;;;;;;5.85;3.38;;;;;;;23.27;41.54;99945.22;10341723;28;20042;-73
2023/07/22 12:06:06;;;;;;;2.90;2.60;;;;;;;23.58;40.92;99946.31;10333520;28;20400;-75
2023/07/22 12:11:08;;;;;;;5.53;2.55;;;;;;;23.79;39.38;99930.75;10330716;28;20049;-73
2023/07/22 12:16:09;;;;;;;3.67;2.75;;;;;;;23.64;40.53;99914.75;10328713;28;20057;-70
2023/07/22 12:21:11;;;;;;;6.75;2.90;;;;;;;23.58;39.96;99912.91;10335075;28;20124;-74
2023/07/22 12:26:13;;;;;;;5.03;2.67;;;;;;;23.45;40.21;99920.06;10370840;28;20050;-71
2023/07/22 12:31:14;;;;;;;3.28;2.17;;;;;;;23.40;40.91;99914.44;10337497;28;20061;-72
2023/07/22 12:36:16;;;;;;;5.43;2.95;;;;;;;23.44;41.09;99928.44;10331204;28;20137;-72
2023/07/22 12:41:17;;;;;;;2.58;2.08;;;;;;;23.48;41.76;99925.06;10329378;28;20049;-74
2023/07/22 12:46:19;;;;;;;4.05;2.22;;;;;;;23.55;41.49;99913.34;10327320;28;20046;-71
2023/07/22 12:51:20;;;;;;;5.43;2.97;;;;;;;23.74;40.79;99912.38;10326305;28;20054;-74
2023/07/22 12:56:22;;;;;;;3.33;3.03;;;;;;;23.75;41.24;99896.91;10330230;28;20192;-74
2023/07/22 13:01:23;;;;;;;4.25;2.72;;;;;;;23.76;41.00;99906.72;10342820;28;20132;-74
2023/07/22 13:06:26;;;;;;;3.13;2.13;;;;;;;23.82;41.76;99903.13;10329637;28;20070;-72
2023/07/22 13:11:27;;;;;;;3.28;2.42;;;;;;;23.69;40.75;99893.19;10327388;28;20046;-76
2023/07/22 13:16:29;;;;;;;3.10;2.80;;;;;;;23.56;40.75;99888.66;10334183;28;20567;-74
2023/07/22 13:21:31;;;;;;;4.45;3.20;;;;;;;23.54;41.10;99881.78;10338114;28;20053;-71
2023/07/22 13:26:34;;;;;;;4.13;2.78;;;;;;;23.56;40.01;99880.53;10338384;28;20079;-75
2023/07/22 13:31:38;;;;;;;4.13;2.63;;;;;;;23.56;41.34;99872.38;10336279;28;20060;-73
2023/07/22 13:36:40;;;;;;;3.00;2.50;;;;;;;23.72;41.86;99881.03;10335927;28;20755;-73
2023/07/22 13:41:41;;;;;;;4.95;2.88;;;;;;;23.71;42.01;99871.25;10335584;28;20058;-72
2023/07/22 13:46:43;;;;;;;3.03;1.98;;;;;;;23.90;41.68;99862.16;10335031;28;20139;-75
2023/07/22 13:51:44;;;;;;;2.85;2.38;;;;;;;23.95;41.82;99847.91;10332620;28;20058;-72
2023/07/22 13:56:47;;;;;;;2.58;2.38;;;;;;;24.15;40.44;99850.44;10332418;28;20144;-76
2023/07/22 14:01:48;;;;;;;4.43;2.08;;;;;;;24.20;40.32;99847.91;10335366;28;20065;-73
2023/07/22 14:06:50;;;;;;;5.28;3.15;;;;;;;24.20;39.52;99845.19;10335703;28;20058;-73
2023/07/22 14:11:51;;;;;;;3.33;2.92;;;;;;;24.38;38.90;99836.22;10335469;28;20161;-73
2023/07/22 14:16:53;;;;;;;4.60;2.88;;;;;;;24.38;38.05;99830.78;10332997;28;20069;-72
2023/07/22 14:21:54;;;;;;;3.00;2.67;;;;;;;24.39;37.08;99829.69;10333104;28;20057;-73
2023/07/22 14:26:55;;;;;;;5.55;2.67;;;;;;;24.43;34.84;99814.59;10333950;28;20053;-74
2023/07/22 14:31:57;;;;;;;4.53;2.33;;;;;;;24.56;36.03;99820.94;10335243;28;20065;-73
2023/07/22 14:37:00;;;;;;;2.95;2.28;;;;;;;24.66;35.06;99813.94;10331364;28;20053;-73
2023/07/22 14:42:01;;;;;;;3.70;2.93;;;;;;;24.71;34.63;99818.72;10333587;28;20674;-74
2023/07/22 14:47:03;;;;;;;3.70;2.10;;;;;;;24.73;35.02;99815.78;10334405;28;20049;-74
2023/07/22 14:52:04;;;;;;;3.65;2.30;;;;;;;24.80;35.25;99802.91;10330113;28;20684;-73
2023/07/22 14:57:06;;;;;;;3.53;1.98;;;;;;;24.72;34.47;99814.13;10332923;28;20042;-73
2023/07/22 15:02:09;;;;;;;2.67;2.20;;;;;;;24.68;34.96;99808.28;10333016;28;20045;-72
2023/07/22 15:07:10;;;;;;;2.67;2.25;;;;;;;24.77;34.93;99792.47;10332958;28;20053;-73
2023/07/22 15:12:11;;;;;;;3.17;1.92;;;;;;;24.82;34.77;99792.66;10333908;28;20054;-73
2023/07/22 15:17:15;;;;;;;2.72;2.40;;;;;;;24.66;33.63;99784.03;10330248;28;20049;-74
2023/07/22 15:22:17;;;;;;;3.90;2.13;;;;;;;24.70;34.18;99793.41;10333072;28;20201;-75
2023/07/22 15:27:18;;;;;;;3.25;2.10;;;;;;;24.67;33.60;99780.25;10340895;28;20054;-74
2023/07/22 15:32:20;;;;;;;4.18;1.67;;;;;;;24.68;33.28;99787.38;10339028;28;20049;-76
2023/07/22 15:37:21;;;;;;;3.22;2.35;;;;;;;24.67;33.10;99785.69;10330753;28;20061;-71
2023/07/22 15:42:23;;;;;;;4.20;2.10;;;;;;;24.70;32.91;99796.13;10329196;28;20050;-72
2023/07/22 15:47:24;;;;;;;3.47;2.20;;;;;;;24.63;32.56;99792.63;10328591;28;20050;-73
2023/07/22 15:52:26;;;;;;;3.63;2.60;;;;;;;24.63;32.88;99781.75;10327692;28;20137;-72
2023/07/22 15:57:27;;;;;;;3.80;2.22;;;;;;;24.65;32.73;99776.94;10330046;28;20554;-71
2023/07/22 16:02:28;;;;;;;4.50;2.55;;;;;;;24.66;33.47;99772.31;10328899;28;20045;-71
2023/07/22 16:07:34;;;;;;;3.08;2.30;;;;;;;24.67;33.11;99768.53;10329896;28;20060;-74
2023/07/22 16:12:35;;;;;;;3.92;1.90;;;;;;;24.69;32.89;99763.69;10330863;28;20050;-72
2023/07/22 16:17:36;;;;;;;3.28;2.20;;;;;;;24.68;32.62;99753.84;10330484;28;20053;-71
2023/07/22 16:22:38;;;;;;;3.97;2.10;;;;;;;24.62;31.92;99755.63;10329312;28;20136;-72
2023/07/22 16:27:41;;;;;;;4.68;2.95;;;;;;;24.55;32.78;99752.13;10343167;28;20065;-73
2023/07/22 16:32:42;;;;;;;4.70;2.67;;;;;;;24.57;32.78;99763.59;10368455;28;20049;-72
2023/07/22 16:37:44;;;;;;;3.58;2.60;;;;;;;24.52;33.43;99760.75;10332192;28;20046;-70
2023/07/22 16:42:45;;;;;;;3.92;2.75;;;;;;;24.48;32.88;99756.81;10329989;28;20053;-72
2023/07/22 16:47:50;;;;;;;2.53;2.33;;;;;;;24.46;33.04;99758.94;10332430;28;20065;-74
2023/07/22 16:52:51;;;;;;;4.90;2.95;;;;;;;24.42;33.78;99746.84;10337310;28;20748;-72
2023/07/22 16:57:53;;;;;;;4.78;3.45;;;;;;;24.38;33.27;99749.19;10335423;28;20053;-75
2023/07/22 17:02:54;;;;;;;4.10;3.03;;;;;;;24.39;32.95;99744.56;10337856;28;20053;-75
2023/07/22 17:07:58;;;;;;;3.95;2.75;;;;;;;24.40;33.48;99746.25;10337557;28;20222;-72
2023/07/22 17:12:59;;;;;;;4.20;2.85;;;;;;;24.34;34.34;99731.66;10335722;28;20050;-73
2023/07/22 17:18:01;;;;;;;4.03;3.15;;;;;;;24.38;33.56;99742.91;10335955;28;20100;-71
2023/07/22 17:23:03;;;;;;;4.80;2.60;;;;;;;24.34;33.85;99732.47;10333589;28;20806;-73
2023/07/22 17:28:05;;;;;;;4.80;3.17;;;;;;;24.30;33.78;99725.00;10344515;28;20056;-74
2023/07/22 17:33:07;;;;;;;5.13;3.45;;;;;;;24.25;33.89;99730.28;10341292;28;20068;-71
2023/07/22 17:38:08;;;;;;;3.88;3.28;;;;;;;24.22;34.34;99728.84;10338168;28;20093;-73
2023/07/22 17:43:10;;;;;;;5.07;3.75;;;;;;;24.18;33.64;99723.03;10341795;28;20507;-72
2023/07/22 17:48:12;;;;;;;3.35;2.53;;;;;;;24.15;34.28;99733.53;10334530;28;20065;-74
2023/07/22 17:53:13;;;;;;;3.38;3.00;;;;;;;24.04;34.02;99709.81;10333592;28;20050;-75
2023/07/22 17:58:15;;;;;;;5.03;3.72;;;;;;;24.08;33.48;99725.44;10333445;28;20054;-72
2023/07/22 18:03:16;;;;;;;5.65;3.47;;;;;;;24.03;33.93;99729.91;10335130;28;20940;-71
2023/07/22 18:08:18;;;;;;;4.15;3.05;;;;;;;23.98;33.80;99730.56;10332442;28;20053;-72
2023/07/22 18:13:23;;;;;;;5.03;3.28;;;;;;;23.92;34.14;99723.31;10335361;28;20134;-76
2023/07/22 18:18:24;;;;;;;5.13;3.33;;;;;;;23.87;34.30;99721.28;10334587;28;20132;-76
2023/07/22 18:23:25;;;;;;;3.97;2.70;;;;;;;23.86;34.91;99725.03;10335062;28;20741;-75
2023/07/22 18:28:27;;;;;;;4.35;3.25;;;;;;;23.81;34.82;99716.72;10332805;28;20668;-73
2023/07/22 18:33:29;;;;;;;5.15;3.10;;;;;;;23.78;34.63;99737.00;10337564;28;20057;-73
2023/07/22 18:38:30;;;;;;;4.70;2.60;;;;;;;23.73;34.39;99730.56;10334979;28;20053;-76
2023/07/22 18:43:32;;;;;;;4.35;3.03;;;;;;;23.71;34.14;99732.69;10334394;28;20049;-72
2023/07/22 18:48:33;;;;;;;5.10;2.95;;;;;;;23.64;34.80;99722.72;10335157;28;20080;-73
2023/07/22 18:53:35;;;;;;;3.28;2.72;;;;;;;23.63;35.25;99731.91;10329436;28;20052;-73
2023/07/22 18:58:36;;;;;;;4.40;3.40;;;;;;;23.63;35.15;99731.91;10331750;28;20152;-75
2023/07/22 19:03:37;;;;;;;5.28;3.17;;;;;;;23.59;35.47;99729.84;10335811;28;20501;-70
2023/07/22 19:08:39;;;;;;;2.95;2.45;;;;;;;23.52;35.84;99737.22;10331132;28;20137;-74
2023/07/22 19:13:40;;;;;;;3.40;2.53;;;;;;;23.50;35.54;99742.88;10328857;28;20053;-77
2023/07/22 19:18:42;;;;;;;5.47;3.15;;;;;;;23.48;36.36;99739.56;10334214;28;20685;-74
2023/07/22 19:23:43;;;;;;;3.80;2.90;;;;;;;23.45;36.70;99745.44;10331933;28;20191;-74
2023/07/22 19:28:45;;;;;;;5.50;3.30;;;;;;;23.36;36.74;99746.72;10331420;28;20050;-72
2023/07/22 19:33:46;;;;;;;8.00;3.50;;;;;;;23.34;36.94;99751.56;10331686;28;20049;-74
2023/07/22 19:38:48;;;;;;;5.10;2.97;;;;;;;23.33;37.17;99758.03;10343569;28;20045;-74
2023/07/22 19:43:49;;;;;;;4.00;3.00;;;;;;;23.27;37.55;99738.88;10336690;28;20053;-74
2023/07/22 19:48:51;;;;;;;4.68;2.72;;;;;;;23.22;37.71;99751.41;10327207;28;20119;-71
2023/07/22 19:53:52;;;;;;;5.30;3.05;;;;;;;23.24;37.70;99760.16;10331346;28;20194;-72
2023/07/22 19:58:54;;;;;;;4.72;3.00;;;;;;;23.21;37.60;99753.31;10330649;28;20207;-69
2023/07/22 20:03:55;;;;;;;4.80;3.30;;;;;;;23.21;37.91;99753.31;10330989;28;20053;-74
2023/07/22 20:08:56;;;;;;;4.57;3.13;;;;;;;23.15;37.81;99756.91;10330016;28;20146;-74
2023/07/22 20:13:58;;;;;;;3.22;2.92;;;;;;;23.19;37.88;99768.97;10324087;28;20520;-74
2023/07/22 20:18:59;;;;;;;3.30;2.72;;;;;;;23.18;38.14;99761.91;10328433;28;20148;-73
2023/07/22 20:24:01;;;;;;;3.97;3.25;;;;;;;23.13;38.17;99764.41;10326432;28;20805;-72
2023/07/22 20:29:02;;;;;;;6.57;3.30;;;;;;;23.11;37.81;99769.25;10329303;28;20050;-72
2023/07/22 20:34:03;;;;;;;4.57;3.42;;;;;;;23.11;38.35;99777.38;10329895;28;20061;-74
2023/07/22 20:39:05;;;;;;;3.47;2.95;;;;;;;23.11;37.92;99771.97;10349205;28;20049;-76
2023/07/22 20:44:06;;;;;;;3.67;3.22;;;;;;;23.04;38.81;99771.13;10364346;28;20060;-72
2023/07/22 20:49:08;;;;;;;4.50;2.65;;;;;;;23.09;38.90;99768.63;10337504;28;20153;-72
2023/07/22 20:54:09;;;;;;;4.40;3.35;;;;;;;23.09;38.59;99779.47;10329583;28;20060;-72
2023/07/22 20:59:11;;;;;;;4.30;3.28;;;;;;;23.02;39.11;99773.25;10330691;28;20052;-70
2023/07/22 21:04:12;;;;;;;4.15;2.85;;;;;;;22.97;39.03;99775.75;10324798;28;20058;-73
2023/07/22 21:09:13;;;;;;;5.40;3.17;;;;;;;22.99;39.66;99774.50;10329096;28;20982;-72
2023/07/22 21:14:16;;;;;;;4.32;2.95;;;;;;;22.97;39.54;99771.19;10325376;28;20112;-73
2023/07/22 21:19:17;;;;;;;4.57;2.60;;;;;;;22.97;39.56;99775.75;10327033;28;20737;-74
2023/07/22 21:24:19;;;;;;;5.22;3.60;;;;;;;22.94;39.98;99769.72;10324551;28;20059;-72
2023/07/22 21:29:20;;;;;;;4.15;2.80;;;;;;;22.93;39.90;99781.63;10325076;28;20152;-71
2023/07/22 21:34:21;;;;;;;4.05;3.20;;;;;;;22.92;39.99;99777.25;10327874;28;20053;-71
2023/07/22 21:39:23;;;;;;;3.95;2.95;;;;;;;22.88;40.29;99772.44;10335451;28;20045;-73
2023/07/22 21:44:24;;;;;;;3.90;3.42;;;;;;;22.83;39.79;99770.38;10339423;28;20055;-72
2023/07/22 21:49:26;;;;;;;5.30;3.78;;;;;;;22.79;40.35;99771.88;10342970;28;20069;-71
2023/07/22 21:54:27;;;;;;;4.30;2.75;;;;;;;22.75;40.88;99770.66;10339340;28;20049;-73
2023/07/22 21:59:29;;;;;;;4.20;2.97;;;;;;;22.73;41.25;99779.00;10339150;28;20131;-72
2023/07/22 22:04:30;;;;;;;3.67;2.95;;;;;;;22.67;40.93;99776.28;10333444;28;20088;-70
2023/07/22 22:09:31;;;;;;;2.95;2.65;;;;;;;22.64;41.37;99771.31;10330545;28;20489;-69
2023/07/22 22:14:33;;;;;;;3.70;3.05;;;;;;;22.58;41.26;99763.00;10334745;28;20220;-71
2023/07/22 22:19:34;;;;;;;3.80;3.40;;;;;;;22.58;41.15;99768.41;10333678;28;20064;-71
2023/07/22 22:24:36;;;;;;;3.53;2.95;;;;;;;22.57;41.33;99771.34;10333191;28;20046;-70
2023/07/22 22:29:37;;;;;;;5.05;2.85;;;;;;;22.53;41.43;99768.22;10332003;28;20487;-71
2023/07/22 22:34:39;;;;;;;6.20;3.65;;;;;;;22.50;41.35;99776.78;10330413;28;20068;-71
2023/07/22 22:39:41;;;;;;;5.20;3.90;;;;;;;22.48;41.10;99776.16;10328196;28;20152;-72
2023/07/22 22:44:42;;;;;;;4.70;4.05;;;;;;;22.41;41.04;99762.63;10330272;28;20137;-71
2023/07/22 22:49:47;;;;;;;5.05;4.32;;;;;;;22.46;43.54;99769.28;10329898;28;20471;-71
2023/07/22 22:54:48;;;;;;;6.40;3.38;;;;;;;22.44;43.29;99771.38;10331248;28;20436;-71
2023/07/22 22:59:50;;;;;;;4.82;3.58;;;;;;;22.43;43.32;99781.41;10332767;28;20861;-70
2023/07/22 23:04:51;;;;;;;4.30;3.70;;;;;;;22.40;44.05;99770.97;10331690;28;20042;-73
2023/07/22 23:09:52;;;;;;;4.57;3.38;;;;;;;22.34;44.17;99771.81;10329178;28;20133;-72
2023/07/22 23:14:55;;;;;;;5.35;3.58;;;;;;;22.29;44.54;99752.63;10330327;28;20050;-72
2023/07/22 23:19:56;;;;;;;4.97;3.70;;;;;;;22.19;44.68;99748.47;10329892;28;20064;-72